Terminal Aerodrome Forecast
Issued by NWS

Home | Current Version | Previous Version | Text Only | Print | Product List | Glossary On
Versions: 1 2 3 4 5 6 7 8 9 10 11 12 13 14 15 16 17 18 19 20 21 22 23 24 25 26 27 28 29 30 31 32 33 34 35 36
119
FTUS45 KBOU 161515 AAB
TAFBJC
TAF AMD
KBJC 161515Z 1615/1712 33010KT 3/4SM -SN VV006
     FM161630 33010KT 1 1/2SM -SN BR SCT005 OVC012
     FM161800 33012KT 4SM -SN BR SCT008 OVC020
     FM162000 32010KT P6SM VCSH SCT018 OVC030
     FM162100 32009KT P6SM FEW035 SCT070 BKN120
     FM170200 24006KT P6SM FEW050 SCT220
     FM170600 17008KT P6SM FEW220=

USA.gov is the U.S. government's official web portal to all federal, state and local government web resources and services.